Pagrindinis puslapis
METAR-TAF:

METAR-TAF

Oro uostai :

Kukuta, Kolumbija

platuma: 07-56N, ilguma: 072-31W, Aukštis: 250 m

Dabartinis oras

Ataskaita buvo paskelbta 33 minutes, ne 03:00 UTC
Vėjas 2 kt nuo kintamojo kryptimis
Temperatūra 29°C
Drėgmė 58%
Slėgis 1015 hPa
Matomumas 10 km arba daugiau
Išsisklaidę debesys ne aukštis 2000 ft
Išsisklaidę debesys ne aukštis 8000 ft

METAR: SKCC 180300Z VRB02KT 9999 SCT020 SCT080 29/20 A2996

Laikas: 22:33 (03:33 UTC)

Prognozė

Ataskaita buvo paskelbta 5 valandos ir 3 minutes, ne 22:30 UTC
Prognozė galioja nuo 18 metu 00 UTC su 18 metu 24 UTC
Vėjas 17 kt iš Pietų/Pietryčių
Matomumas 10 km arba daugiau
Išsisklaidę debesys ne aukštis 2300 ft
Tapsmas
nuo 18 metu 07 UTC su 18 metu 09 UTC
Vėjas 4 kt iš Šiaurės
Tapsmas
nuo 18 metu 13 UTC su 18 metu 15 UTC
Vėjas 20 kt iš Pietų

TAF: SKCC 172230Z 1800/1824 15017KT 9999 SCT023 BECMG 1807/1809 36004KT BECMG 1813/1815 18020KT TX32/1818Z TN23/1811Z

Orai ataskaitas ir orų prognozės (METAR, TAF).

turimą stotys yra geltonos ir raudonos taškus žemėlapyje.

Perkelti pele per norėdami pamatyti stoties vardą.

Tada spustelėkite, norėdami matyti oro stebėjimo ir prognozės.

Norėdami pakeisti žemėlapį: spustelėkite ant žalios mygtukų su juodo kryžiaus žemyn,; žalią mygtuką su brūkšneliu, jei norite nutolinti; arba žalių rodyklių gretimoms žemėlapius.


METAR-TAF: